Pedro De Toledo, Brazil
Current Conditions -  °F | °C
As of 12:00 PM on Thursday 30 Oct 2014 (Local Time) from SBSP Reporting Station
Scattered Clouds Scattered Clouds  
Wind Chill: 88°   Ceiling: Unl
Heat Index: 88°   Visibility: 6mi
Dew Point: 52°   Wind: 14mph
Humidity: 29%   Direction: 330°NNW
Pressure: 29.94"   Gusts: NA
Location:  24.28°S, 47.23°W
Report Text: SBSP 301400Z 33012KT 9999 SCT035 31/11 Q1014
Loading
Personal Weather Stations






























Interactive Weather Map
Tropical Storm Tracking
New forecast layout! Learn more

10-Day Weather Forecast

Advertisements
Track Severe Weather on mobile